sensor_id;sensor_type;location;lat;lon;timestamp;temperature;humidity
68011;DHT22;54794;48.348;7.878;2024-02-28T00:02:03;10.80;62.50
68011;DHT22;54794;48.348;7.878;2024-02-28T00:04:30;10.70;62.60
68011;DHT22;54794;48.348;7.878;2024-02-28T00:06:57;10.70;62.60
68011;DHT22;54794;48.348;7.878;2024-02-28T00:09:25;10.60;62.60
68011;DHT22;54794;48.348;7.878;2024-02-28T00:11:52;10.60;62.60
68011;DHT22;54794;48.348;7.878;2024-02-28T00:14:19;10.80;62.80
68011;DHT22;54794;48.348;7.878;2024-02-28T00:16:46;10.50;62.60
68011;DHT22;54794;48.348;7.878;2024-02-28T00:19:14;10.50;62.70
68011;DHT22;54794;48.348;7.878;2024-02-28T00:21:41;10.50;62.70
68011;DHT22;54794;48.348;7.878;2024-02-28T00:24:09;10.40;62.70
68011;DHT22;54794;48.348;7.878;2024-02-28T00:26:40;10.40;62.80
68011;DHT22;54794;48.348;7.878;2024-02-28T00:29:12;10.40;62.90
68011;DHT22;54794;48.348;7.878;2024-02-28T00:31:38;10.40;63.10
68011;DHT22;54794;48.348;7.878;2024-02-28T00:34:05;10.30;63.50
68011;DHT22;54794;48.348;7.878;2024-02-28T00:36:35;10.40;63.00
68011;DHT22;54794;48.348;7.878;2024-02-28T00:39:17;10.30;63.10
68011;DHT22;54794;48.348;7.878;2024-02-28T00:41:44;10.30;63.10
68011;DHT22;54794;48.348;7.878;2024-02-28T00:44:11;10.30;63.20
68011;DHT22;54794;48.348;7.878;2024-02-28T00:46:39;10.30;63.20
68011;DHT22;54794;48.348;7.878;2024-02-28T00:49:06;10.30;63.30
68011;DHT22;54794;48.348;7.878;2024-02-28T00:51:33;10.30;63.40
68011;DHT22;54794;48.348;7.878;2024-02-28T00:54:00;10.30;63.50
68011;DHT22;54794;48.348;7.878;2024-02-28T00:56:27;10.30;63.50
68011;DHT22;54794;48.348;7.878;2024-02-28T00:58:54;10.30;64.00
68011;DHT22;54794;48.348;7.878;2024-02-28T01:01:20;10.30;63.40
68011;DHT22;54794;48.348;7.878;2024-02-28T01:03:47;10.30;63.40
68011;DHT22;54794;48.348;7.878;2024-02-28T01:06:14;10.30;63.30
68011;DHT22;54794;48.348;7.878;2024-02-28T01:08:43;10.30;63.40
68011;DHT22;54794;48.348;7.878;2024-02-28T01:11:10;10.70;63.70
68011;DHT22;54794;48.348;7.878;2024-02-28T01:13:37;10.30;63.40
68011;DHT22;54794;48.348;7.878;2024-02-28T01:16:04;10.30;63.40
68011;DHT22;54794;48.348;7.878;2024-02-28T01:18:31;10.30;63.40
68011;DHT22;54794;48.348;7.878;2024-02-28T01:20:58;10.30;63.40
68011;DHT22;54794;48.348;7.878;2024-02-28T01:23:25;10.30;63.50
68011;DHT22;54794;48.348;7.878;2024-02-28T01:25:52;10.30;63.50
68011;DHT22;54794;48.348;7.878;2024-02-28T01:28:19;10.30;63.50
68011;DHT22;54794;48.348;7.878;2024-02-28T01:30:46;10.20;63.40
68011;DHT22;54794;48.348;7.878;2024-02-28T01:33:13;10.20;63.40
68011;DHT22;54794;48.348;7.878;2024-02-28T01:35:40;10.20;63.40
68011;DHT22;54794;48.348;7.878;2024-02-28T01:38:07;10.30;63.50
68011;DHT22;54794;48.348;7.878;2024-02-28T01:40:34;10.30;63.50
68011;DHT22;54794;48.348;7.878;2024-02-28T01:43:07;10.20;63.50
68011;DHT22;54794;48.348;7.878;2024-02-28T01:45:34;10.30;63.70
68011;DHT22;54794;48.348;7.878;2024-02-28T01:48:02;10.20;63.60
68011;DHT22;54794;48.348;7.878;2024-02-28T01:50:32;10.30;63.70
68011;DHT22;54794;48.348;7.878;2024-02-28T01:53:00;10.40;63.70
68011;DHT22;54794;48.348;7.878;2024-02-28T01:55:28;10.30;63.60
68011;DHT22;54794;48.348;7.878;2024-02-28T01:57:55;10.90;63.90
68011;DHT22;54794;48.348;7.878;2024-02-28T02:00:24;10.30;63.60
68011;DHT22;54794;48.348;7.878;2024-02-28T02:02:53;10.30;63.50
68011;DHT22;54794;48.348;7.878;2024-02-28T02:05:20;10.50;63.70
68011;DHT22;54794;48.348;7.878;2024-02-28T02:07:48;10.30;63.60
68011;DHT22;54794;48.348;7.878;2024-02-28T02:10:16;10.30;63.70
68011;DHT22;54794;48.348;7.878;2024-02-28T02:12:43;10.60;63.80
68011;DHT22;54794;48.348;7.878;2024-02-28T02:15:10;10.50;63.80
68011;DHT22;54794;48.348;7.878;2024-02-28T02:17:37;10.50;63.80
68011;DHT22;54794;48.348;7.878;2024-02-28T02:20:04;10.30;63.60
68011;DHT22;54794;48.348;7.878;2024-02-28T02:22:38;10.30;63.70
68011;DHT22;54794;48.348;7.878;2024-02-28T02:25:05;10.30;63.70
68011;DHT22;54794;48.348;7.878;2024-02-28T02:27:33;10.30;63.60
68011;DHT22;54794;48.348;7.878;2024-02-28T02:30:00;10.30;63.60
68011;DHT22;54794;48.348;7.878;2024-02-28T02:32:29;10.30;63.60
68011;DHT22;54794;48.348;7.878;2024-02-28T02:34:56;10.30;63.60
68011;DHT22;54794;48.348;7.878;2024-02-28T02:37:23;10.30;63.60
68011;DHT22;54794;48.348;7.878;2024-02-28T02:39:51;10.20;63.60
68011;DHT22;54794;48.348;7.878;2024-02-28T02:42:19;10.40;63.70
68011;DHT22;54794;48.348;7.878;2024-02-28T02:44:46;10.30;63.70
68011;DHT22;54794;48.348;7.878;2024-02-28T02:47:12;10.30;63.80
68011;DHT22;54794;48.348;7.878;2024-02-28T02:49:39;10.00;63.60
68011;DHT22;54794;48.348;7.878;2024-02-28T02:52:06;10.30;63.80
68011;DHT22;54794;48.348;7.878;2024-02-28T02:54:33;10.30;63.70
68011;DHT22;54794;48.348;7.878;2024-02-28T02:57:00;10.30;63.70
68011;DHT22;54794;48.348;7.878;2024-02-28T02:59:26;10.40;63.80
68011;DHT22;54794;48.348;7.878;2024-02-28T03:01:53;10.30;63.80
68011;DHT22;54794;48.348;7.878;2024-02-28T03:04:20;10.30;63.70
68011;DHT22;54794;48.348;7.878;2024-02-28T03:06:47;10.30;63.70
68011;DHT22;54794;48.348;7.878;2024-02-28T03:09:14;10.40;63.70
68011;DHT22;54794;48.348;7.878;2024-02-28T03:11:40;10.30;63.70
68011;DHT22;54794;48.348;7.878;2024-02-28T03:14:10;10.30;63.70
68011;DHT22;54794;48.348;7.878;2024-02-28T03:16:41;10.40;63.80
68011;DHT22;54794;48.348;7.878;2024-02-28T03:19:10;10.30;63.80
68011;DHT22;54794;48.348;7.878;2024-02-28T03:21:37;10.30;63.70
68011;DHT22;54794;48.348;7.878;2024-02-28T03:24:04;10.30;63.80
68011;DHT22;54794;48.348;7.878;2024-02-28T03:26:31;10.30;63.80
68011;DHT22;54794;48.348;7.878;2024-02-28T03:28:59;10.30;63.70
68011;DHT22;54794;48.348;7.878;2024-02-28T03:31:26;10.30;63.80
68011;DHT22;54794;48.348;7.878;2024-02-28T03:33:53;10.30;63.80
68011;DHT22;54794;48.348;7.878;2024-02-28T03:36:32;10.30;63.90
68011;DHT22;54794;48.348;7.878;2024-02-28T03:39:10;10.30;63.60
68011;DHT22;54794;48.348;7.878;2024-02-28T03:41:37;10.10;63.60
68011;DHT22;54794;48.348;7.878;2024-02-28T03:44:05;10.40;63.70
68011;DHT22;54794;48.348;7.878;2024-02-28T03:46:32;10.20;63.60
68011;DHT22;54794;48.348;7.878;2024-02-28T03:48:58;10.20;63.60
68011;DHT22;54794;48.348;7.878;2024-02-28T03:51:25;10.20;63.60
68011;DHT22;54794;48.348;7.878;2024-02-28T03:53:52;10.00;63.50
68011;DHT22;54794;48.348;7.878;2024-02-28T03:56:24;10.20;63.70
68011;DHT22;54794;48.348;7.878;2024-02-28T03:58:53;10.10;63.60
68011;DHT22;54794;48.348;7.878;2024-02-28T04:01:20;10.20;63.60
68011;DHT22;54794;48.348;7.878;2024-02-28T04:03:47;10.20;63.60
68011;DHT22;54794;48.348;7.878;2024-02-28T04:06:14;10.20;63.70
68011;DHT22;54794;48.348;7.878;2024-02-28T04:08:42;10.20;63.70
68011;DHT22;54794;48.348;7.878;2024-02-28T04:11:09;10.10;63.60
68011;DHT22;54794;48.348;7.878;2024-02-28T04:13:36;10.10;63.60
68011;DHT22;54794;48.348;7.878;2024-02-28T04:16:03;10.10;63.60
68011;DHT22;54794;48.348;7.878;2024-02-28T04:18:30;10.10;63.60
68011;DHT22;54794;48.348;7.878;2024-02-28T04:20:57;10.10;63.60
68011;DHT22;54794;48.348;7.878;2024-02-28T04:23:23;10.10;63.50
68011;DHT22;54794;48.348;7.878;2024-02-28T04:25:50;10.10;63.50
68011;DHT22;54794;48.348;7.878;2024-02-28T04:28:17;10.10;63.60
68011;DHT22;54794;48.348;7.878;2024-02-28T04:30:44;10.40;63.70
68011;DHT22;54794;48.348;7.878;2024-02-28T04:33:11;10.00;63.60
68011;DHT22;54794;48.348;7.878;2024-02-28T04:35:38;10.00;63.60
68011;DHT22;54794;48.348;7.878;2024-02-28T04:38:05;10.00;63.60
68011;DHT22;54794;48.348;7.878;2024-02-28T04:40:32;9.90;63.40
68011;DHT22;54794;48.348;7.878;2024-02-28T04:43:01;9.90;63.50
68011;DHT22;54794;48.348;7.878;2024-02-28T04:45:29;9.90;63.50
68011;DHT22;54794;48.348;7.878;2024-02-28T04:47:55;9.90;63.50
68011;DHT22;54794;48.348;7.878;2024-02-28T04:50:24;9.90;63.50
68011;DHT22;54794;48.348;7.878;2024-02-28T04:52:51;9.90;63.50
68011;DHT22;54794;48.348;7.878;2024-02-28T04:55:18;9.80;63.40
68011;DHT22;54794;48.348;7.878;2024-02-28T04:57:45;9.80;63.40
68011;DHT22;54794;48.348;7.878;2024-02-28T05:00:12;9.80;63.40
68011;DHT22;54794;48.348;7.878;2024-02-28T05:02:39;9.70;63.30
68011;DHT22;54794;48.348;7.878;2024-02-28T05:05:06;9.70;63.30
68011;DHT22;54794;48.348;7.878;2024-02-28T05:07:33;10.20;63.50
68011;DHT22;54794;48.348;7.878;2024-02-28T05:10:00;9.60;63.20
68011;DHT22;54794;48.348;7.878;2024-02-28T05:12:27;9.60;63.20
68011;DHT22;54794;48.348;7.878;2024-02-28T05:14:54;9.70;63.30
68011;DHT22;54794;48.348;7.878;2024-02-28T05:17:21;9.50;63.70
68011;DHT22;54794;48.348;7.878;2024-02-28T05:19:48;9.50;63.10
68011;DHT22;54794;48.348;7.878;2024-02-28T05:22:15;9.50;63.10
68011;DHT22;54794;48.348;7.878;2024-02-28T05:24:41;9.80;63.30
68011;DHT22;54794;48.348;7.878;2024-02-28T05:27:10;9.30;63.10
68011;DHT22;54794;48.348;7.878;2024-02-28T05:29:37;9.30;63.20
68011;DHT22;54794;48.348;7.878;2024-02-28T05:32:04;9.60;63.40
68011;DHT22;54794;48.348;7.878;2024-02-28T05:34:31;9.20;63.30
68011;DHT22;54794;48.348;7.878;2024-02-28T05:36:58;9.20;63.40
68011;DHT22;54794;48.348;7.878;2024-02-28T05:39:27;9.10;63.30
68011;DHT22;54794;48.348;7.878;2024-02-28T05:41:57;9.10;63.90
68011;DHT22;54794;48.348;7.878;2024-02-28T05:44:24;9.30;63.50
68011;DHT22;54794;48.348;7.878;2024-02-28T05:46:51;9.50;63.60
68011;DHT22;54794;48.348;7.878;2024-02-28T05:49:18;9.00;63.40
68011;DHT22;54794;48.348;7.878;2024-02-28T05:51:44;9.00;63.40
68011;DHT22;54794;48.348;7.878;2024-02-28T05:54:13;9.00;63.40
68011;DHT22;54794;48.348;7.878;2024-02-28T05:56:40;8.90;63.40
68011;DHT22;54794;48.348;7.878;2024-02-28T05:59:06;8.90;64.00
68011;DHT22;54794;48.348;7.878;2024-02-28T06:01:33;8.90;63.50
68011;DHT22;54794;48.348;7.878;2024-02-28T06:04:00;8.90;63.50
68011;DHT22;54794;48.348;7.878;2024-02-28T06:06:28;9.20;63.70
68011;DHT22;54794;48.348;7.878;2024-02-28T06:08:55;8.80;63.50
68011;DHT22;54794;48.348;7.878;2024-02-28T06:11:22;8.70;63.50
68011;DHT22;54794;48.348;7.878;2024-02-28T06:13:51;8.70;63.60
68011;DHT22;54794;48.348;7.878;2024-02-28T06:16:18;8.70;63.60
68011;DHT22;54794;48.348;7.878;2024-02-28T06:18:45;8.80;63.70
68011;DHT22;54794;48.348;7.878;2024-02-28T06:21:13;8.70;63.60
68011;DHT22;54794;48.348;7.878;2024-02-28T06:23:41;9.10;63.80
68011;DHT22;54794;48.348;7.878;2024-02-28T06:26:08;8.70;63.60
68011;DHT22;54794;48.348;7.878;2024-02-28T06:28:42;8.70;63.60
68011;DHT22;54794;48.348;7.878;2024-02-28T06:31:18;9.00;63.70
68011;DHT22;54794;48.348;7.878;2024-02-28T06:33:46;8.80;63.60
68011;DHT22;54794;48.348;7.878;2024-02-28T06:36:13;8.60;63.50
68011;DHT22;54794;48.348;7.878;2024-02-28T06:38:42;8.50;63.50
68011;DHT22;54794;48.348;7.878;2024-02-28T06:41:09;8.50;63.50
68011;DHT22;54794;48.348;7.878;2024-02-28T06:43:36;8.50;63.60
68011;DHT22;54794;48.348;7.878;2024-02-28T06:46:04;8.50;63.70
68011;DHT22;54794;48.348;7.878;2024-02-28T06:48:31;8.50;63.80
68011;DHT22;54794;48.348;7.878;2024-02-28T06:50:58;8.50;63.80
68011;DHT22;54794;48.348;7.878;2024-02-28T06:53:25;9.30;64.30
68011;DHT22;54794;48.348;7.878;2024-02-28T06:55:53;8.60;63.90
68011;DHT22;54794;48.348;7.878;2024-02-28T06:58:20;8.50;63.90
68011;DHT22;54794;48.348;7.878;2024-02-28T07:00:48;8.60;63.80
68011;DHT22;54794;48.348;7.878;2024-02-28T07:03:21;8.50;64.30
68011;DHT22;54794;48.348;7.878;2024-02-28T07:05:48;8.50;63.70
68011;DHT22;54794;48.348;7.878;2024-02-28T07:08:14;8.50;63.80
68011;DHT22;54794;48.348;7.878;2024-02-28T07:10:41;8.40;63.80
68011;DHT22;54794;48.348;7.878;2024-02-28T07:13:10;8.40;63.90
68011;DHT22;54794;48.348;7.878;2024-02-28T07:15:37;8.40;63.90
68011;DHT22;54794;48.348;7.878;2024-02-28T07:18:05;8.40;64.10
68011;DHT22;54794;48.348;7.878;2024-02-28T07:20:32;8.50;64.30
68011;DHT22;54794;48.348;7.878;2024-02-28T07:22:59;8.40;64.40
68011;DHT22;54794;48.348;7.878;2024-02-28T07:25:26;8.50;64.50
68011;DHT22;54794;48.348;7.878;2024-02-28T07:27:53;8.50;64.60
68011;DHT22;54794;48.348;7.878;2024-02-28T07:30:21;8.60;64.70
68011;DHT22;54794;48.348;7.878;2024-02-28T07:32:47;8.60;64.80
68011;DHT22;54794;48.348;7.878;2024-02-28T07:35:16;8.60;64.80
68011;DHT22;54794;48.348;7.878;2024-02-28T07:37:43;8.70;64.70
68011;DHT22;54794;48.348;7.878;2024-02-28T07:40:10;8.80;64.50
68011;DHT22;54794;48.348;7.878;2024-02-28T07:42:37;8.70;64.40
68011;DHT22;54794;48.348;7.878;2024-02-28T07:45:04;8.80;64.60
68011;DHT22;54794;48.348;7.878;2024-02-28T07:47:31;8.80;64.60
68011;DHT22;54794;48.348;7.878;2024-02-28T07:49:58;8.90;64.70
68011;DHT22;54794;48.348;7.878;2024-02-28T07:52:25;8.90;64.70
68011;DHT22;54794;48.348;7.878;2024-02-28T07:54:52;8.90;64.60
68011;DHT22;54794;48.348;7.878;2024-02-28T07:57:19;9.30;64.80
68011;DHT22;54794;48.348;7.878;2024-02-28T07:59:46;9.00;64.50
68011;DHT22;54794;48.348;7.878;2024-02-28T08:02:13;9.00;64.60
68011;DHT22;54794;48.348;7.878;2024-02-28T08:04:41;9.00;64.60
68011;DHT22;54794;48.348;7.878;2024-02-28T08:07:07;9.30;64.80
68011;DHT22;54794;48.348;7.878;2024-02-28T08:09:34;9.30;64.70
68011;DHT22;54794;48.348;7.878;2024-02-28T08:12:01;9.10;64.70
68011;DHT22;54794;48.348;7.878;2024-02-28T08:14:28;9.20;64.80
68011;DHT22;54794;48.348;7.878;2024-02-28T08:16:55;9.50;65.00
68011;DHT22;54794;48.348;7.878;2024-02-28T08:19:22;9.20;64.70
68011;DHT22;54794;48.348;7.878;2024-02-28T08:21:49;9.40;64.80
68011;DHT22;54794;48.348;7.878;2024-02-28T08:24:16;9.30;64.80
68011;DHT22;54794;48.348;7.878;2024-02-28T08:26:43;9.40;64.80
68011;DHT22;54794;48.348;7.878;2024-02-28T08:29:10;9.40;64.80
68011;DHT22;54794;48.348;7.878;2024-02-28T08:31:44;9.50;65.30
68011;DHT22;54794;48.348;7.878;2024-02-28T08:34:11;9.50;64.80
68011;DHT22;54794;48.348;7.878;2024-02-28T08:36:38;9.90;64.90
68011;DHT22;54794;48.348;7.878;2024-02-28T08:39:05;9.60;64.70
68011;DHT22;54794;48.348;7.878;2024-02-28T08:41:33;9.80;64.90
68011;DHT22;54794;48.348;7.878;2024-02-28T08:44:00;9.90;64.90
68011;DHT22;54794;48.348;7.878;2024-02-28T08:46:27;9.80;64.70
68011;DHT22;54794;48.348;7.878;2024-02-28T08:48:54;10.20;65.00
68011;DHT22;54794;48.348;7.878;2024-02-28T08:51:21;9.90;64.90
68011;DHT22;54794;48.348;7.878;2024-02-28T08:53:48;10.00;64.90
68011;DHT22;54794;48.348;7.878;2024-02-28T08:56:15;10.10;64.70
68011;DHT22;54794;48.348;7.878;2024-02-28T08:58:42;10.20;64.60
68011;DHT22;54794;48.348;7.878;2024-02-28T09:01:14;9.90;64.40
68011;DHT22;54794;48.348;7.878;2024-02-28T09:03:42;10.60;64.80
68011;DHT22;54794;48.348;7.878;2024-02-28T09:06:09;10.30;64.50
68011;DHT22;54794;48.348;7.878;2024-02-28T09:08:36;10.40;64.60
68011;DHT22;54794;48.348;7.878;2024-02-28T09:11:03;10.40;64.40
68011;DHT22;54794;48.348;7.878;2024-02-28T09:13:31;10.40;64.30
68011;DHT22;54794;48.348;7.878;2024-02-28T09:15:58;11.00;64.60
68011;DHT22;54794;48.348;7.878;2024-02-28T09:18:25;10.70;64.40
68011;DHT22;54794;48.348;7.878;2024-02-28T09:20:52;10.70;64.40
68011;DHT22;54794;48.348;7.878;2024-02-28T09:23:19;10.60;64.20
68011;DHT22;54794;48.348;7.878;2024-02-28T09:25:46;10.60;64.20
68011;DHT22;54794;48.348;7.878;2024-02-28T09:28:12;10.70;64.30
68011;DHT22;54794;48.348;7.878;2024-02-28T09:30:42;10.70;64.20
68011;DHT22;54794;48.348;7.878;2024-02-28T09:33:18;10.90;64.20
68011;DHT22;54794;48.348;7.878;2024-02-28T09:35:46;10.80;64.20
68011;DHT22;54794;48.348;7.878;2024-02-28T09:38:13;10.90;64.30
68011;DHT22;54794;48.348;7.878;2024-02-28T09:40:39;10.90;64.30
68011;DHT22;54794;48.348;7.878;2024-02-28T09:43:13;11.20;64.40
68011;DHT22;54794;48.348;7.878;2024-02-28T09:45:46;11.10;64.20
68011;DHT22;54794;48.348;7.878;2024-02-28T09:48:16;11.10;64.10
68011;DHT22;54794;48.348;7.878;2024-02-28T09:50:45;11.20;64.00
68011;DHT22;54794;48.348;7.878;2024-02-28T09:53:12;11.70;64.30
68011;DHT22;54794;48.348;7.878;2024-02-28T09:55:38;11.40;64.10
68011;DHT22;54794;48.348;7.878;2024-02-28T09:58:05;11.30;63.90
68011;DHT22;54794;48.348;7.878;2024-02-28T10:00:35;11.90;64.10
68011;DHT22;54794;48.348;7.878;2024-02-28T10:03:04;11.40;63.90
68011;DHT22;54794;48.348;7.878;2024-02-28T10:05:33;11.40;64.00
68011;DHT22;54794;48.348;7.878;2024-02-28T10:08:00;11.40;64.00
68011;DHT22;54794;48.348;7.878;2024-02-28T10:10:28;11.50;64.00
68011;DHT22;54794;48.348;7.878;2024-02-28T10:12:56;11.50;63.90
68011;DHT22;54794;48.348;7.878;2024-02-28T10:15:25;11.50;63.80
68011;DHT22;54794;48.348;7.878;2024-02-28T10:17:53;11.60;63.90
68011;DHT22;54794;48.348;7.878;2024-02-28T10:20:20;11.60;63.90
68011;DHT22;54794;48.348;7.878;2024-02-28T10:22:46;11.90;64.10
68011;DHT22;54794;48.348;7.878;2024-02-28T10:25:13;11.60;63.80
68011;DHT22;54794;48.348;7.878;2024-02-28T10:27:40;11.70;63.80
68011;DHT22;54794;48.348;7.878;2024-02-28T10:30:08;11.70;63.70
68011;DHT22;54794;48.348;7.878;2024-02-28T10:32:35;11.80;63.80
68011;DHT22;54794;48.348;7.878;2024-02-28T10:35:02;12.10;63.90
68011;DHT22;54794;48.348;7.878;2024-02-28T10:37:30;11.80;63.80
68011;DHT22;54794;48.348;7.878;2024-02-28T10:40:00;12.30;63.80
68011;DHT22;54794;48.348;7.878;2024-02-28T10:42:30;11.90;63.60
68011;DHT22;54794;48.348;7.878;2024-02-28T10:44:58;12.00;63.50
68011;DHT22;54794;48.348;7.878;2024-02-28T10:47:45;12.00;63.50
68011;DHT22;54794;48.348;7.878;2024-02-28T10:50:14;12.00;63.50
68011;DHT22;54794;48.348;7.878;2024-02-28T10:52:44;12.20;63.80
68011;DHT22;54794;48.348;7.878;2024-02-28T10:55:23;12.40;64.00
68011;DHT22;54794;48.348;7.878;2024-02-28T10:58:00;12.20;63.60
68011;DHT22;54794;48.348;7.878;2024-02-28T11:00:30;12.20;63.60
68011;DHT22;54794;48.348;7.878;2024-02-28T11:02:59;12.30;63.70
68011;DHT22;54794;48.348;7.878;2024-02-28T11:05:36;12.20;63.60
68011;DHT22;54794;48.348;7.878;2024-02-28T11:08:11;12.30;63.60
68011;DHT22;54794;48.348;7.878;2024-02-28T11:10:41;12.30;63.60
68011;DHT22;54794;48.348;7.878;2024-02-28T11:17:04;12.40;63.30
68011;DHT22;54794;48.348;7.878;2024-02-28T11:19:33;12.30;63.10
68011;DHT22;54794;48.348;7.878;2024-02-28T11:22:02;12.30;63.00
68011;DHT22;54794;48.348;7.878;2024-02-28T11:24:33;12.50;63.60
68011;DHT22;54794;48.348;7.878;2024-02-28T11:27:01;12.70;63.00
68011;DHT22;54794;48.348;7.878;2024-02-28T11:29:30;12.50;62.90
68011;DHT22;54794;48.348;7.878;2024-02-28T11:31:57;12.40;62.90
68011;DHT22;54794;48.348;7.878;2024-02-28T11:34:24;12.60;62.80
68011;DHT22;54794;48.348;7.878;2024-02-28T11:36:51;12.50;62.90
68011;DHT22;54794;48.348;7.878;2024-02-28T11:39:20;12.50;62.90
68011;DHT22;54794;48.348;7.878;2024-02-28T11:41:47;12.50;63.00
68011;DHT22;54794;48.348;7.878;2024-02-28T11:44:19;12.60;63.20
68011;DHT22;54794;48.348;7.878;2024-02-28T11:46:48;12.40;62.70
68011;DHT22;54794;48.348;7.878;2024-02-28T11:49:17;12.80;62.90
68011;DHT22;54794;48.348;7.878;2024-02-28T11:51:45;12.70;63.40
68011;DHT22;54794;48.348;7.878;2024-02-28T11:54:13;12.80;62.80
68011;DHT22;54794;48.348;7.878;2024-02-28T11:56:40;12.70;62.80
68011;DHT22;54794;48.348;7.878;2024-02-28T11:59:09;12.90;62.80
68011;DHT22;54794;48.348;7.878;2024-02-28T12:01:40;12.80;62.70
68011;DHT22;54794;48.348;7.878;2024-02-28T12:04:08;12.70;62.60
68011;DHT22;54794;48.348;7.878;2024-02-28T12:06:37;12.90;62.80
68011;DHT22;54794;48.348;7.878;2024-02-28T12:09:10;13.00;62.80
68011;DHT22;54794;48.348;7.878;2024-02-28T12:11:50;13.00;62.70
68011;DHT22;54794;48.348;7.878;2024-02-28T12:14:17;13.60;63.10
68011;DHT22;54794;48.348;7.878;2024-02-28T12:16:44;13.30;62.90
68011;DHT22;54794;48.348;7.878;2024-02-28T12:19:12;13.40;63.00
68011;DHT22;54794;48.348;7.878;2024-02-28T12:21:42;13.90;63.20
68011;DHT22;54794;48.348;7.878;2024-02-28T12:24:10;13.70;62.80
68011;DHT22;54794;48.348;7.878;2024-02-28T12:26:38;13.00;62.30
68011;DHT22;54794;48.348;7.878;2024-02-28T12:29:06;13.60;62.50
68011;DHT22;54794;48.348;7.878;2024-02-28T12:31:33;13.90;62.70
68011;DHT22;54794;48.348;7.878;2024-02-28T12:34:03;13.60;62.90
68011;DHT22;54794;48.348;7.878;2024-02-28T12:36:33;13.20;62.30
68011;DHT22;54794;48.348;7.878;2024-02-28T12:39:03;13.90;62.50
68011;DHT22;54794;48.348;7.878;2024-02-28T12:41:35;13.80;62.30
68011;DHT22;54794;48.348;7.878;2024-02-28T12:44:07;13.90;62.10
68011;DHT22;54794;48.348;7.878;2024-02-28T12:46:35;14.00;62.30
68011;DHT22;54794;48.348;7.878;2024-02-28T12:49:02;14.20;62.40
68011;DHT22;54794;48.348;7.878;2024-02-28T12:51:39;14.10;62.40
68011;DHT22;54794;48.348;7.878;2024-02-28T12:54:13;14.30;62.10
68011;DHT22;54794;48.348;7.878;2024-02-28T12:56:42;14.70;62.40
68011;DHT22;54794;48.348;7.878;2024-02-28T12:59:13;14.00;61.80
68011;DHT22;54794;48.348;7.878;2024-02-28T13:01:40;14.50;62.00
68011;DHT22;54794;48.348;7.878;2024-02-28T13:04:09;15.00;61.90
68011;DHT22;54794;48.348;7.878;2024-02-28T13:06:37;14.80;61.40
68011;DHT22;54794;48.348;7.878;2024-02-28T13:09:05;14.80;61.30
68011;DHT22;54794;48.348;7.878;2024-02-28T13:11:38;15.00;61.40
68011;DHT22;54794;48.348;7.878;2024-02-28T13:14:06;15.20;61.50
68011;DHT22;54794;48.348;7.878;2024-02-28T13:16:34;15.20;61.30
68011;DHT22;54794;48.348;7.878;2024-02-28T13:19:01;15.20;61.00
68011;DHT22;54794;48.348;7.878;2024-02-28T13:21:29;15.20;60.40
68011;DHT22;54794;48.348;7.878;2024-02-28T13:23:59;15.60;60.40
68011;DHT22;54794;48.348;7.878;2024-02-28T13:26:28;15.60;60.50
68011;DHT22;54794;48.348;7.878;2024-02-28T13:28:55;15.20;60.60
68011;DHT22;54794;48.348;7.878;2024-02-28T13:31:21;15.70;60.80
68011;DHT22;54794;48.348;7.878;2024-02-28T13:33:49;14.60;60.20
68011;DHT22;54794;48.348;7.878;2024-02-28T13:36:16;15.60;60.80
68011;DHT22;54794;48.348;7.878;2024-02-28T13:38:43;15.50;60.70
68011;DHT22;54794;48.348;7.878;2024-02-28T13:41:10;15.70;60.70
68011;DHT22;54794;48.348;7.878;2024-02-28T13:43:37;15.60;61.10
68011;DHT22;54794;48.348;7.878;2024-02-28T13:46:05;15.70;60.50
68011;DHT22;54794;48.348;7.878;2024-02-28T13:48:33;15.80;60.40
68011;DHT22;54794;48.348;7.878;2024-02-28T13:51:00;16.30;60.60
68011;DHT22;54794;48.348;7.878;2024-02-28T13:53:28;15.10;59.80
68011;DHT22;54794;48.348;7.878;2024-02-28T13:55:58;15.90;60.00
68011;DHT22;54794;48.348;7.878;2024-02-28T13:58:26;15.20;60.00
68011;DHT22;54794;48.348;7.878;2024-02-28T14:01:05;16.30;59.70
68011;DHT22;54794;48.348;7.878;2024-02-28T14:03:36;16.10;59.60
68011;DHT22;54794;48.348;7.878;2024-02-28T14:06:06;16.30;59.60
68011;DHT22;54794;48.348;7.878;2024-02-28T14:08:33;16.10;59.80
68011;DHT22;54794;48.348;7.878;2024-02-28T14:11:02;16.20;59.60
68011;DHT22;54794;48.348;7.878;2024-02-28T14:13:31;16.20;59.40
68011;DHT22;54794;48.348;7.878;2024-02-28T14:16:01;16.50;59.60
68011;DHT22;54794;48.348;7.878;2024-02-28T14:18:28;16.30;59.40
68011;DHT22;54794;48.348;7.878;2024-02-28T14:20:55;16.80;59.40
68011;DHT22;54794;48.348;7.878;2024-02-28T14:23:24;16.80;59.60
68011;DHT22;54794;48.348;7.878;2024-02-28T14:25:52;16.60;59.40
68011;DHT22;54794;48.348;7.878;2024-02-28T14:28:18;16.70;59.10
68011;DHT22;54794;48.348;7.878;2024-02-28T14:30:46;16.50;59.10
68011;DHT22;54794;48.348;7.878;2024-02-28T14:33:16;16.50;59.00
68011;DHT22;54794;48.348;7.878;2024-02-28T14:35:43;16.80;58.90
68011;DHT22;54794;48.348;7.878;2024-02-28T14:38:10;17.00;59.10
68011;DHT22;54794;48.348;7.878;2024-02-28T14:40:37;17.00;59.10
68011;DHT22;54794;48.348;7.878;2024-02-28T14:43:07;16.90;58.70
68011;DHT22;54794;48.348;7.878;2024-02-28T14:45:38;16.60;58.40
68011;DHT22;54794;48.348;7.878;2024-02-28T14:48:07;17.10;58.60
68011;DHT22;54794;48.348;7.878;2024-02-28T14:50:34;16.60;58.20
68011;DHT22;54794;48.348;7.878;2024-02-28T14:53:03;16.00;57.90
68011;DHT22;54794;48.348;7.878;2024-02-28T14:55:32;16.80;58.30
68011;DHT22;54794;48.348;7.878;2024-02-28T14:57:59;16.90;58.10
68011;DHT22;54794;48.348;7.878;2024-02-28T15:00:27;17.00;58.40
68011;DHT22;54794;48.348;7.878;2024-02-28T15:02:55;16.70;58.40
68011;DHT22;54794;48.348;7.878;2024-02-28T15:05:22;17.10;58.70
68011;DHT22;54794;48.348;7.878;2024-02-28T15:07:49;16.90;58.30
68011;DHT22;54794;48.348;7.878;2024-02-28T15:10:16;16.80;57.90
68011;DHT22;54794;48.348;7.878;2024-02-28T15:12:43;16.70;58.00
68011;DHT22;54794;48.348;7.878;2024-02-28T15:15:12;17.00;58.00
68011;DHT22;54794;48.348;7.878;2024-02-28T15:17:39;16.70;57.70
68011;DHT22;54794;48.348;7.878;2024-02-28T15:20:06;16.80;57.70
68011;DHT22;54794;48.348;7.878;2024-02-28T15:22:35;16.70;57.70
68011;DHT22;54794;48.348;7.878;2024-02-28T15:25:02;16.70;57.60
68011;DHT22;54794;48.348;7.878;2024-02-28T15:27:30;16.70;57.50
68011;DHT22;54794;48.348;7.878;2024-02-28T15:29:57;17.10;57.60
68011;DHT22;54794;48.348;7.878;2024-02-28T15:32:23;17.20;57.60
68011;DHT22;54794;48.348;7.878;2024-02-28T15:34:51;16.50;57.30
68011;DHT22;54794;48.348;7.878;2024-02-28T15:37:21;16.80;57.30
68011;DHT22;54794;48.348;7.878;2024-02-28T15:39:48;16.80;57.20
68011;DHT22;54794;48.348;7.878;2024-02-28T15:42:17;16.40;57.10
68011;DHT22;54794;48.348;7.878;2024-02-28T15:44:45;16.40;57.20